EZY54EC EGKK-EDDL
Flight info
| Callsign | EZY54EC |
|---|---|
| Flight time | 0h 53m |
| Altitude | 33000 |
| Route | DVR L9 KONAN DCT KOK UL607 SPI Y862 KENUM M170 NVO T857 BIKMU BIKMU1A |
| Aircraft | A320/M-SDE2E3FGHIJ1RWXYZ/LB1 |
Departure
| Time | 2026-05-05 13:57 |
|---|---|
| Airport | London Gatwick Airport (EGKK) |
Arrival
| Time | 2026-05-05 14:51 |
|---|---|
| Airport | Düsseldorf Airport (EDDL) |
| Time | Latitude | Longitude | Altitude | Speed | Heading |
|---|---|---|---|---|---|
| 2026-05-05 13:15 | 51.15474 | -0.17091 | 209 ft | 0 kts | 345° |
| 2026-05-05 13:47 | 51.15469 | -0.17089 | 205 ft | 2 kts | 345° |
| 2026-05-05 13:47 | 51.15452 | -0.17082 | 214 ft | 2 kts | 345° |
| 2026-05-05 13:47 | 51.15436 | -0.17071 | 210 ft | 3 kts | 311° |
| 2026-05-05 13:48 | 51.15427 | -0.17047 | 208 ft | 3 kts | 274° |
| 2026-05-05 13:48 | 51.15428 | -0.17019 | 205 ft | 3 kts | 271° |
| 2026-05-05 13:48 | 51.15427 | -0.16999 | 205 ft | 0 kts | 256° |
| 2026-05-05 13:50 | 51.15425 | -0.17012 | 205 ft | 6 kts | 256° |
| 2026-05-05 13:50 | 51.15418 | -0.17058 | 207 ft | 8 kts | 256° |
| 2026-05-05 13:51 | 51.15393 | -0.17177 | 209 ft | 12 kts | 246° |
| 2026-05-05 13:51 | 51.15362 | -0.17326 | 210 ft | 18 kts | 250° |
| 2026-05-05 13:51 | 51.15295 | -0.17472 | 205 ft | 17 kts | 268° |
| 2026-05-05 13:51 | 51.15272 | -0.17671 | 210 ft | 20 kts | 258° |
| 2026-05-05 13:52 | 51.15235 | -0.17931 | 207 ft | 25 kts | 257° |
| 2026-05-05 13:52 | 51.15195 | -0.18225 | 209 ft | 30 kts | 257° |
| 2026-05-05 13:52 | 51.15161 | -0.18519 | 213 ft | 31 kts | 258° |
| 2026-05-05 13:52 | 51.15134 | -0.18711 | 205 ft | 17 kts | 258° |
| 2026-05-05 13:53 | 51.15105 | -0.18929 | 205 ft | 22 kts | 257° |
| 2026-05-05 13:53 | 51.15070 | -0.19185 | 208 ft | 25 kts | 259° |
| 2026-05-05 13:53 | 51.15028 | -0.19474 | 212 ft | 28 kts | 256° |
| 2026-05-05 13:53 | 51.14989 | -0.19763 | 207 ft | 24 kts | 258° |
| 2026-05-05 13:54 | 51.14953 | -0.20040 | 213 ft | 27 kts | 258° |
| 2026-05-05 13:54 | 51.14910 | -0.20348 | 210 ft | 30 kts | 258° |
| 2026-05-05 13:54 | 51.14870 | -0.20632 | 214 ft | 27 kts | 256° |
| 2026-05-05 13:54 | 51.14831 | -0.20916 | 210 ft | 26 kts | 258° |
| 2026-05-05 13:55 | 51.14788 | -0.21177 | 212 ft | 24 kts | 247° |
| 2026-05-05 13:55 | 51.14737 | -0.21398 | 208 ft | 15 kts | 200° |
| 2026-05-05 13:55 | 51.14655 | -0.21358 | 218 ft | 8 kts | 143° |
| 2026-05-05 13:55 | 51.14609 | -0.21325 | 208 ft | 6 kts | 162° |
| 2026-05-05 13:56 | 51.14571 | -0.21301 | 210 ft | 6 kts | 148° |
| 2026-05-05 13:56 | 51.14522 | -0.21226 | 210 ft | 12 kts | 117° |
| 2026-05-05 13:56 | 51.14523 | -0.21149 | 206 ft | 0 kts | 78° |
| 2026-05-05 13:56 | 51.14561 | -0.20875 | 208 ft | 65 kts | 77° |
| 2026-05-05 13:57 | 51.14713 | -0.19782 | 214 ft | 133 kts | 77° |
| 2026-05-05 13:57 | 51.14943 | -0.18133 | 564 ft | 159 kts | 77° |
| 2026-05-05 13:57 | 51.15167 | -0.16393 | 1340 ft | 161 kts | 77° |
| 2026-05-05 13:57 | 51.15385 | -0.14675 | 2181 ft | 155 kts | 76° |
| 2026-05-05 13:58 | 51.15583 | -0.12996 | 2884 ft | 156 kts | 76° |
| 2026-05-05 13:58 | 51.15786 | -0.11282 | 3449 ft | 159 kts | 77° |
| 2026-05-05 13:58 | 51.16013 | -0.09514 | 3942 ft | 168 kts | 75° |
| 2026-05-05 13:58 | 51.16303 | -0.07614 | 4401 ft | 184 kts | 73° |
| 2026-05-05 13:59 | 51.16966 | -0.03338 | 5208 ft | 219 kts | 76° |
| 2026-05-05 13:59 | 51.17046 | -0.00779 | 5640 ft | 246 kts | 96° |
| 2026-05-05 14:00 | 51.16558 | 0.05002 | 6817 ft | 276 kts | 90° |
| 2026-05-05 14:00 | 51.16567 | 0.07045 | 7350 ft | 279 kts | 88° |
| 2026-05-05 14:00 | 51.16585 | 0.11190 | 8668 ft | 281 kts | 90° |
| 2026-05-05 14:00 | 51.16562 | 0.14327 | 9546 ft | 286 kts | 90° |
| 2026-05-05 14:01 | 51.16539 | 0.16436 | 10210 ft | 289 kts | 90° |
| 2026-05-05 14:01 | 51.16532 | 0.19652 | 11009 ft | 292 kts | 89° |
| 2026-05-05 14:01 | 51.16540 | 0.22898 | 11877 ft | 294 kts | 89° |
| 2026-05-05 14:01 | 51.16552 | 0.26164 | 12754 ft | 296 kts | 89° |
| 2026-05-05 14:02 | 51.16564 | 0.29464 | 13636 ft | 298 kts | 89° |
| 2026-05-05 14:02 | 51.16576 | 0.32782 | 14396 ft | 301 kts | 89° |
| 2026-05-05 14:02 | 51.16585 | 0.36133 | 15108 ft | 304 kts | 89° |
| 2026-05-05 14:02 | 51.16590 | 0.39529 | 15800 ft | 308 kts | 89° |
| 2026-05-05 14:03 | 51.16591 | 0.42967 | 16487 ft | 313 kts | 90° |
| 2026-05-05 14:03 | 51.16592 | 0.46451 | 17169 ft | 317 kts | 90° |
| 2026-05-05 14:03 | 51.16592 | 0.49983 | 17783 ft | 323 kts | 90° |
| 2026-05-05 14:03 | 51.16594 | 0.53650 | 18078 ft | 339 kts | 90° |
| 2026-05-05 14:04 | 51.16595 | 0.57486 | 18300 ft | 355 kts | 90° |
| 2026-05-05 14:04 | 51.16592 | 0.61492 | 18624 ft | 366 kts | 90° |
| 2026-05-05 14:04 | 51.16586 | 0.65562 | 19129 ft | 370 kts | 90° |
| 2026-05-05 14:04 | 51.16580 | 0.69677 | 19668 ft | 372 kts | 90° |
| 2026-05-05 14:05 | 51.16570 | 0.73818 | 20207 ft | 375 kts | 91° |
| 2026-05-05 14:05 | 51.16559 | 0.77993 | 20737 ft | 378 kts | 91° |
| 2026-05-05 14:05 | 51.16546 | 0.82197 | 21177 ft | 381 kts | 91° |
| 2026-05-05 14:05 | 51.16533 | 0.86435 | 21695 ft | 384 kts | 91° |
| 2026-05-05 14:06 | 51.16519 | 0.90713 | 22216 ft | 387 kts | 92° |
| 2026-05-05 14:06 | 51.16503 | 0.95009 | 22724 ft | 390 kts | 92° |
| 2026-05-05 14:06 | 51.16485 | 0.99348 | 23221 ft | 393 kts | 92° |
| 2026-05-05 14:06 | 51.16464 | 1.03725 | 23683 ft | 396 kts | 93° |
| 2026-05-05 14:07 | 51.16439 | 1.08127 | 24091 ft | 399 kts | 92° |
| 2026-05-05 14:07 | 51.16414 | 1.12556 | 24505 ft | 401 kts | 92° |
| 2026-05-05 14:07 | 51.16387 | 1.17015 | 24917 ft | 403 kts | 92° |
| 2026-05-05 14:07 | 51.16358 | 1.21493 | 25324 ft | 405 kts | 92° |
| 2026-05-05 14:08 | 51.16331 | 1.25996 | 25726 ft | 408 kts | 92° |
| 2026-05-05 14:08 | 51.16302 | 1.30523 | 26120 ft | 410 kts | 92° |
| 2026-05-05 14:08 | 51.16270 | 1.35108 | 26507 ft | 412 kts | 93° |
| 2026-05-05 14:08 | 51.16178 | 1.39653 | 26884 ft | 414 kts | 95° |
| 2026-05-05 14:09 | 51.15995 | 1.44237 | 27260 ft | 416 kts | 96° |
| 2026-05-05 14:09 | 51.15752 | 1.48844 | 27623 ft | 418 kts | 97° |
| 2026-05-05 14:09 | 51.15485 | 1.53462 | 27982 ft | 421 kts | 97° |
| 2026-05-05 14:09 | 51.15217 | 1.58117 | 28336 ft | 423 kts | 97° |
| 2026-05-05 14:10 | 51.14959 | 1.62798 | 28688 ft | 425 kts | 97° |
| 2026-05-05 14:10 | 51.14715 | 1.67511 | 29026 ft | 428 kts | 97° |
| 2026-05-05 14:10 | 51.14481 | 1.72246 | 29368 ft | 431 kts | 96° |
| 2026-05-05 14:10 | 51.14247 | 1.77018 | 29706 ft | 433 kts | 96° |
| 2026-05-05 14:11 | 51.14013 | 1.81811 | 30028 ft | 436 kts | 97° |
| 2026-05-05 14:11 | 51.13773 | 1.86632 | 30301 ft | 438 kts | 97° |
| 2026-05-05 14:11 | 51.13524 | 1.91489 | 30568 ft | 441 kts | 97° |
| 2026-05-05 14:11 | 51.13267 | 1.96362 | 30831 ft | 443 kts | 97° |
| 2026-05-05 14:12 | 51.13011 | 2.01255 | 31079 ft | 445 kts | 97° |
| 2026-05-05 14:12 | 51.12750 | 2.06174 | 31327 ft | 447 kts | 97° |
| 2026-05-05 14:12 | 51.12486 | 2.11112 | 31642 ft | 447 kts | 97° |
| 2026-05-05 14:12 | 51.12221 | 2.16037 | 32012 ft | 447 kts | 97° |
| 2026-05-05 14:13 | 51.11957 | 2.20955 | 32381 ft | 446 kts | 97° |
| 2026-05-05 14:13 | 51.11692 | 2.25862 | 32747 ft | 445 kts | 97° |
| 2026-05-05 14:13 | 51.11426 | 2.30764 | 33120 ft | 444 kts | 97° |
| 2026-05-05 14:13 | 51.11160 | 2.35656 | 33476 ft | 443 kts | 97° |
| 2026-05-05 14:14 | 51.10889 | 2.40536 | 33856 ft | 442 kts | 97° |
| 2026-05-05 14:14 | 51.10614 | 2.45409 | 34174 ft | 442 kts | 97° |
| 2026-05-05 14:14 | 51.10338 | 2.50269 | 34457 ft | 441 kts | 97° |
| 2026-05-05 14:14 | 51.10058 | 2.55135 | 34718 ft | 441 kts | 97° |
| 2026-05-05 14:15 | 51.09777 | 2.59992 | 34971 ft | 442 kts | 97° |
| 2026-05-05 14:15 | 51.09428 | 2.64841 | 35216 ft | 440 kts | 103° |
| 2026-05-05 14:15 | 51.08688 | 2.69550 | 35456 ft | 438 kts | 109° |
| 2026-05-05 14:15 | 51.07832 | 2.74204 | 35683 ft | 439 kts | 109° |
| 2026-05-05 14:16 | 51.06983 | 2.78865 | 35867 ft | 440 kts | 108° |
| 2026-05-05 14:16 | 51.06141 | 2.83522 | 35919 ft | 435 kts | 108° |
| 2026-05-05 14:16 | 51.04477 | 2.92730 | 35916 ft | 433 kts | 109° |
| 2026-05-05 14:17 | 51.02806 | 3.01908 | 35914 ft | 432 kts | 109° |
| 2026-05-05 14:17 | 51.01120 | 3.11061 | 35910 ft | 432 kts | 109° |
| 2026-05-05 14:18 | 50.99427 | 3.20203 | 35905 ft | 431 kts | 109° |
| 2026-05-05 14:18 | 50.97735 | 3.29326 | 35890 ft | 431 kts | 109° |
| 2026-05-05 14:19 | 50.96032 | 3.38429 | 35885 ft | 430 kts | 110° |
| 2026-05-05 14:19 | 50.94322 | 3.47521 | 35881 ft | 430 kts | 110° |
| 2026-05-05 14:20 | 50.92609 | 3.56591 | 35877 ft | 429 kts | 110° |
| 2026-05-05 14:20 | 50.90887 | 3.65679 | 35872 ft | 429 kts | 110° |
| 2026-05-05 14:21 | 50.89161 | 3.74700 | 35873 ft | 429 kts | 110° |
| 2026-05-05 14:21 | 50.87410 | 3.83712 | 35871 ft | 428 kts | 110° |
| 2026-05-05 14:22 | 50.85656 | 3.92724 | 35874 ft | 428 kts | 110° |
| 2026-05-05 14:22 | 50.83900 | 4.01727 | 35875 ft | 428 kts | 110° |
| 2026-05-05 14:23 | 50.82142 | 4.10700 | 35880 ft | 427 kts | 110° |
| 2026-05-05 14:23 | 50.80377 | 4.19666 | 35881 ft | 427 kts | 110° |
| 2026-05-05 14:24 | 50.79486 | 4.24170 | 35678 ft | 428 kts | 110° |
| 2026-05-05 14:24 | 50.78605 | 4.28635 | 35421 ft | 424 kts | 111° |
| 2026-05-05 14:24 | 50.77728 | 4.33067 | 35170 ft | 421 kts | 111° |
| 2026-05-05 14:24 | 50.76856 | 4.37466 | 34929 ft | 418 kts | 111° |
| 2026-05-05 14:25 | 50.75986 | 4.41822 | 34681 ft | 415 kts | 111° |
| 2026-05-05 14:25 | 50.75116 | 4.46152 | 34426 ft | 412 kts | 111° |
| 2026-05-05 14:25 | 50.74249 | 4.50445 | 34193 ft | 409 kts | 111° |
| 2026-05-05 14:25 | 50.73385 | 4.54712 | 33948 ft | 407 kts | 111° |
| 2026-05-05 14:26 | 50.72530 | 4.58950 | 33686 ft | 405 kts | 111° |
| 2026-05-05 14:26 | 50.71683 | 4.63184 | 33407 ft | 403 kts | 111° |
| 2026-05-05 14:26 | 50.70861 | 4.67403 | 33130 ft | 402 kts | 110° |
| 2026-05-05 14:26 | 50.70055 | 4.71615 | 32854 ft | 401 kts | 110° |
| 2026-05-05 14:27 | 50.69256 | 4.75813 | 32584 ft | 399 kts | 110° |
| 2026-05-05 14:27 | 50.68455 | 4.79999 | 32314 ft | 398 kts | 110° |
| 2026-05-05 14:27 | 50.67651 | 4.84157 | 32047 ft | 396 kts | 111° |
| 2026-05-05 14:27 | 50.66842 | 4.88303 | 31782 ft | 395 kts | 111° |
| 2026-05-05 14:28 | 50.66030 | 4.92434 | 31521 ft | 394 kts | 111° |
| 2026-05-05 14:28 | 50.65204 | 4.96535 | 31262 ft | 392 kts | 111° |
| 2026-05-05 14:28 | 50.64364 | 5.00615 | 30997 ft | 391 kts | 111° |
| 2026-05-05 14:28 | 50.63520 | 5.04675 | 30742 ft | 390 kts | 111° |
| 2026-05-05 14:29 | 50.62679 | 5.08724 | 30506 ft | 388 kts | 111° |
| 2026-05-05 14:29 | 50.61843 | 5.12761 | 30249 ft | 387 kts | 111° |
| 2026-05-05 14:29 | 50.61009 | 5.16788 | 29996 ft | 386 kts | 111° |
| 2026-05-05 14:29 | 50.60179 | 5.20793 | 29722 ft | 384 kts | 111° |
| 2026-05-05 14:30 | 50.59351 | 5.24789 | 29432 ft | 383 kts | 111° |
| 2026-05-05 14:30 | 50.58526 | 5.28762 | 29146 ft | 381 kts | 111° |
| 2026-05-05 14:30 | 50.57701 | 5.32725 | 28865 ft | 380 kts | 111° |
| 2026-05-05 14:30 | 50.56877 | 5.36660 | 28588 ft | 378 kts | 111° |
| 2026-05-05 14:31 | 50.56057 | 5.40582 | 28306 ft | 377 kts | 111° |
| 2026-05-05 14:31 | 50.55238 | 5.44490 | 28040 ft | 375 kts | 111° |
| 2026-05-05 14:31 | 50.54423 | 5.48377 | 27774 ft | 374 kts | 111° |
| 2026-05-05 14:31 | 50.53609 | 5.52250 | 27508 ft | 372 kts | 111° |
| 2026-05-05 14:32 | 50.52851 | 5.56133 | 27245 ft | 373 kts | 105° |
| 2026-05-05 14:32 | 50.52533 | 5.60186 | 26984 ft | 376 kts | 94° |
| 2026-05-05 14:32 | 50.52757 | 5.64286 | 26723 ft | 378 kts | 81° |
| 2026-05-05 14:32 | 50.53529 | 5.68244 | 26466 ft | 382 kts | 69° |
| 2026-05-05 14:33 | 50.54747 | 5.71961 | 26208 ft | 382 kts | 64° |
| 2026-05-05 14:33 | 50.56004 | 5.75626 | 25954 ft | 380 kts | 64° |
| 2026-05-05 14:33 | 50.57253 | 5.79288 | 25704 ft | 379 kts | 65° |
| 2026-05-05 14:33 | 50.58491 | 5.82941 | 25455 ft | 377 kts | 65° |
| 2026-05-05 14:34 | 50.59717 | 5.86584 | 25200 ft | 376 kts | 65° |
| 2026-05-05 14:34 | 50.60938 | 5.90215 | 24970 ft | 374 kts | 65° |
| 2026-05-05 14:34 | 50.62153 | 5.93826 | 24699 ft | 371 kts | 65° |
| 2026-05-05 14:34 | 50.63356 | 5.97407 | 24255 ft | 370 kts | 65° |
| 2026-05-05 14:35 | 50.64560 | 6.00995 | 23771 ft | 370 kts | 65° |
| 2026-05-05 14:35 | 50.65759 | 6.04580 | 23271 ft | 370 kts | 65° |
| 2026-05-05 14:35 | 50.66955 | 6.08166 | 22764 ft | 369 kts | 65° |
| 2026-05-05 14:35 | 50.68146 | 6.11736 | 22312 ft | 367 kts | 65° |
| 2026-05-05 14:36 | 50.69335 | 6.15289 | 21860 ft | 366 kts | 65° |
| 2026-05-05 14:36 | 50.70528 | 6.18836 | 21418 ft | 366 kts | 65° |
| 2026-05-05 14:36 | 50.71721 | 6.22375 | 20964 ft | 365 kts | 65° |
| 2026-05-05 14:36 | 50.72780 | 6.25996 | 20525 ft | 362 kts | 71° |
| 2026-05-05 14:37 | 50.73718 | 6.29677 | 20076 ft | 361 kts | 71° |
| 2026-05-05 14:37 | 50.74647 | 6.33341 | 19637 ft | 359 kts | 71° |
| 2026-05-05 14:37 | 50.75585 | 6.37051 | 19191 ft | 358 kts | 71° |
| 2026-05-05 14:37 | 50.76493 | 6.40652 | 18767 ft | 357 kts | 70° |
| 2026-05-05 14:38 | 50.77410 | 6.44285 | 18327 ft | 356 kts | 70° |
| 2026-05-05 14:38 | 50.78323 | 6.47916 | 17854 ft | 355 kts | 70° |
| 2026-05-05 14:38 | 50.79229 | 6.51522 | 17419 ft | 352 kts | 70° |
| 2026-05-05 14:38 | 50.80131 | 6.55105 | 17005 ft | 349 kts | 70° |
| 2026-05-05 14:39 | 50.81129 | 6.58588 | 16589 ft | 348 kts | 60° |
| 2026-05-05 14:39 | 50.82666 | 6.61531 | 16186 ft | 349 kts | 42° |
| 2026-05-05 14:39 | 50.84689 | 6.63624 | 15764 ft | 348 kts | 24° |
| 2026-05-05 14:39 | 50.87008 | 6.64682 | 15350 ft | 347 kts | 8° |
| 2026-05-05 14:40 | 50.89396 | 6.65186 | 14942 ft | 346 kts | 7° |
| 2026-05-05 14:40 | 50.91779 | 6.65686 | 14533 ft | 345 kts | 7° |
| 2026-05-05 14:40 | 50.94159 | 6.66189 | 14122 ft | 345 kts | 8° |
| 2026-05-05 14:40 | 50.95763 | 6.66528 | 13862 ft | 344 kts | 8° |
| 2026-05-05 14:41 | 50.98894 | 6.67195 | 13353 ft | 341 kts | 8° |
| 2026-05-05 14:41 | 51.00452 | 6.67530 | 13029 ft | 341 kts | 8° |
| 2026-05-05 14:41 | 51.02797 | 6.67888 | 12629 ft | 338 kts | 359° |
| 2026-05-05 14:41 | 51.05139 | 6.67723 | 12188 ft | 327 kts | 356° |
| 2026-05-05 14:42 | 51.07370 | 6.67537 | 11797 ft | 314 kts | 356° |
| 2026-05-05 14:42 | 51.09550 | 6.67377 | 11420 ft | 313 kts | 0° |
| 2026-05-05 14:42 | 51.12395 | 6.68068 | 10832 ft | 315 kts | 16° |
| 2026-05-05 14:42 | 51.13826 | 6.68725 | 10483 ft | 318 kts | 16° |
| 2026-05-05 14:43 | 51.15961 | 6.69706 | 9966 ft | 322 kts | 16° |
| 2026-05-05 14:43 | 51.18120 | 6.70696 | 9623 ft | 319 kts | 16° |
| 2026-05-05 14:43 | 51.20217 | 6.71526 | 9337 ft | 304 kts | 5° |
| 2026-05-05 14:43 | 51.22264 | 6.71230 | 8733 ft | 296 kts | 340° |
| 2026-05-05 14:44 | 51.24041 | 6.69636 | 8082 ft | 289 kts | 315° |
| 2026-05-05 14:44 | 51.25240 | 6.67127 | 7415 ft | 283 kts | 292° |
| 2026-05-05 14:44 | 51.25734 | 6.64133 | 6729 ft | 278 kts | 270° |
| 2026-05-05 14:44 | 51.25479 | 6.61135 | 6207 ft | 269 kts | 251° |
| 2026-05-05 14:45 | 51.24915 | 6.58349 | 5828 ft | 256 kts | 251° |
| 2026-05-05 14:45 | 51.24387 | 6.55707 | 5389 ft | 249 kts | 252° |
| 2026-05-05 14:45 | 51.23760 | 6.53173 | 4957 ft | 240 kts | 235° |
| 2026-05-05 14:45 | 51.22569 | 6.51444 | 4634 ft | 229 kts | 205° |
| 2026-05-05 14:46 | 51.21061 | 6.50938 | 4305 ft | 220 kts | 175° |
| 2026-05-05 14:46 | 51.19654 | 6.51697 | 3968 ft | 212 kts | 140° |
| 2026-05-05 14:46 | 51.18810 | 6.53556 | 3520 ft | 208 kts | 104° |
| 2026-05-05 14:46 | 51.18818 | 6.55746 | 3214 ft | 194 kts | 70° |
| 2026-05-05 14:47 | 51.19486 | 6.57504 | 2965 ft | 180 kts | 51° |
| 2026-05-05 14:47 | 51.20230 | 6.59048 | 2737 ft | 172 kts | 51° |
| 2026-05-05 14:47 | 51.20929 | 6.60506 | 2516 ft | 156 kts | 51° |
| 2026-05-05 14:47 | 51.21557 | 6.61815 | 2314 ft | 148 kts | 52° |
| 2026-05-05 14:48 | 51.22182 | 6.63117 | 2107 ft | 148 kts | 52° |
| 2026-05-05 14:48 | 51.22805 | 6.64418 | 1911 ft | 147 kts | 51° |
| 2026-05-05 14:48 | 51.23422 | 6.65706 | 1713 ft | 145 kts | 50° |
| 2026-05-05 14:48 | 51.24033 | 6.66982 | 1517 ft | 145 kts | 50° |
| 2026-05-05 14:49 | 51.24648 | 6.68266 | 1318 ft | 144 kts | 51° |
| 2026-05-05 14:49 | 51.25246 | 6.69517 | 1115 ft | 143 kts | 51° |
| 2026-05-05 14:49 | 51.25851 | 6.70781 | 916 ft | 142 kts | 50° |
| 2026-05-05 14:49 | 51.26446 | 6.72038 | 700 ft | 142 kts | 49° |
| 2026-05-05 14:50 | 51.27044 | 6.73286 | 503 ft | 140 kts | 48° |
| 2026-05-05 14:50 | 51.27633 | 6.74526 | 314 ft | 140 kts | 49° |
| 2026-05-05 14:50 | 51.28225 | 6.75765 | 149 ft | 140 kts | 49° |
| 2026-05-05 14:50 | 51.28764 | 6.76879 | 142 ft | 104 kts | 54° |
| 2026-05-05 14:51 | 51.29096 | 6.77581 | 143 ft | 54 kts | 51° |
| 2026-05-05 14:51 | 51.29241 | 6.77889 | 147 ft | 27 kts | 53° |
| 2026-05-05 14:51 | 51.29296 | 6.78098 | 149 ft | 20 kts | 98° |
| 2026-05-05 14:51 | 51.29259 | 6.78192 | 149 ft | 4 kts | 146° |
| 2026-05-05 14:52 | 51.29244 | 6.78205 | 148 ft | 3 kts | 154° |
| 2026-05-05 14:52 | 51.29195 | 6.78215 | 147 ft | 9 kts | 191° |
| 2026-05-05 14:52 | 51.29148 | 6.78157 | 146 ft | 9 kts | 231° |
| 2026-05-05 14:52 | 51.29111 | 6.78078 | 145 ft | 9 kts | 232° |
| 2026-05-05 14:53 | 51.29076 | 6.78005 | 145 ft | 8 kts | 233° |
| 2026-05-05 14:53 | 51.29048 | 6.77945 | 146 ft | 6 kts | 234° |
| 2026-05-05 14:53 | 51.29023 | 6.77891 | 145 ft | 8 kts | 232° |
| 2026-05-05 14:53 | 51.28985 | 6.77814 | 143 ft | 10 kts | 232° |
| 2026-05-05 14:54 | 51.28944 | 6.77728 | 142 ft | 10 kts | 233° |
| 2026-05-05 14:54 | 51.28907 | 6.77648 | 142 ft | 9 kts | 233° |
| 2026-05-05 14:54 | 51.28869 | 6.77567 | 140 ft | 10 kts | 233° |
| 2026-05-05 14:54 | 51.28828 | 6.77481 | 139 ft | 9 kts | 233° |
| 2026-05-05 14:55 | 51.28792 | 6.77409 | 140 ft | 8 kts | 231° |
| 2026-05-05 14:55 | 51.28746 | 6.77314 | 141 ft | 14 kts | 233° |
| 2026-05-05 14:55 | 51.28690 | 6.77193 | 141 ft | 13 kts | 233° |
| 2026-05-05 14:55 | 51.28642 | 6.77096 | 142 ft | 10 kts | 231° |
| 2026-05-05 14:56 | 51.28593 | 6.76994 | 141 ft | 18 kts | 232° |
| 2026-05-05 14:56 | 51.28509 | 6.76815 | 139 ft | 17 kts | 231° |
| 2026-05-05 14:56 | 51.28432 | 6.76659 | 134 ft | 19 kts | 233° |
| 2026-05-05 14:56 | 51.28369 | 6.76526 | 134 ft | 13 kts | 235° |
| 2026-05-05 14:57 | 51.28311 | 6.76495 | 133 ft | 8 kts | 161° |
| 2026-05-05 14:57 | 51.28264 | 6.76481 | 132 ft | 7 kts | 213° |
| 2026-05-05 14:57 | 51.28235 | 6.76430 | 132 ft | 6 kts | 233° |
| 2026-05-05 14:57 | 51.28202 | 6.76361 | 134 ft | 12 kts | 233° |
| 2026-05-05 14:58 | 51.28134 | 6.76304 | 134 ft | 8 kts | 181° |
| 2026-05-05 14:58 | 51.28092 | 6.76293 | 133 ft | 6 kts | 188° |
| 2026-05-05 14:58 | 51.28068 | 6.76290 | 132 ft | 1 kts | 184° |